sensor_id;sensor_type;location;lat;lon;timestamp;P1;durP1;ratioP1;P2;durP2;ratioP2
18364;SDS011;9309;52.126;11.616;2022-09-03T00:01:34;1.40;;;1.40;;
18364;SDS011;9309;52.126;11.616;2022-09-03T00:04:06;1.83;;;1.70;;
18364;SDS011;9309;52.126;11.616;2022-09-03T00:06:39;3.30;;;1.43;;
18364;SDS011;9309;52.126;11.616;2022-09-03T00:09:11;1.27;;;1.27;;
18364;SDS011;9309;52.126;11.616;2022-09-03T00:11:46;3.50;;;1.60;;
18364;SDS011;9309;52.126;11.616;2022-09-03T00:14:18;1.90;;;1.30;;
18364;SDS011;9309;52.126;11.616;2022-09-03T00:16:49;1.23;;;1.23;;
18364;SDS011;9309;52.126;11.616;2022-09-03T00:19:19;2.10;;;1.63;;
18364;SDS011;9309;52.126;11.616;2022-09-03T00:21:52;1.63;;;1.53;;
18364;SDS011;9309;52.126;11.616;2022-09-03T00:24:22;1.43;;;1.33;;
18364;SDS011;9309;52.126;11.616;2022-09-03T00:26:54;1.93;;;1.27;;
18364;SDS011;9309;52.126;11.616;2022-09-03T00:29:26;2.90;;;1.30;;
18364;SDS011;9309;52.126;11.616;2022-09-03T00:32:00;1.40;;;1.40;;
18364;SDS011;9309;52.126;11.616;2022-09-03T00:34:31;1.50;;;1.50;;
18364;SDS011;9309;52.126;11.616;2022-09-03T00:37:04;1.40;;;1.30;;
18364;SDS011;9309;52.126;11.616;2022-09-03T00:39:32;1.43;;;1.43;;
18364;SDS011;9309;52.126;11.616;2022-09-03T00:42:02;1.47;;;1.47;;
18364;SDS011;9309;52.126;11.616;2022-09-03T00:44:43;1.77;;;1.40;;
18364;SDS011;9309;52.126;11.616;2022-09-03T00:47:31;1.77;;;1.53;;
18364;SDS011;9309;52.126;11.616;2022-09-03T00:50:06;1.70;;;1.47;;
18364;SDS011;9309;52.126;11.616;2022-09-03T00:52:41;1.50;;;1.40;;
18364;SDS011;9309;52.126;11.616;2022-09-03T00:55:18;1.50;;;1.50;;
18364;SDS011;9309;52.126;11.616;2022-09-03T00:57:54;1.80;;;1.27;;
18364;SDS011;9309;52.126;11.616;2022-09-03T01:00:33;2.83;;;2.07;;
18364;SDS011;9309;52.126;11.616;2022-09-03T01:03:03;2.10;;;1.37;;
18364;SDS011;9309;52.126;11.616;2022-09-03T01:05:41;1.57;;;1.53;;
18364;SDS011;9309;52.126;11.616;2022-09-03T01:11:19;1.53;;;1.50;;
18364;SDS011;9309;52.126;11.616;2022-09-03T01:13:53;1.67;;;1.57;;
18364;SDS011;9309;52.126;11.616;2022-09-03T01:16:25;1.57;;;1.50;;
18364;SDS011;9309;52.126;11.616;2022-09-03T01:18:58;1.60;;;1.57;;
18364;SDS011;9309;52.126;11.616;2022-09-03T01:21:38;1.43;;;1.40;;
18364;SDS011;9309;52.126;11.616;2022-09-03T01:24:31;1.43;;;1.40;;
18364;SDS011;9309;52.126;11.616;2022-09-03T01:27:17;2.00;;;1.70;;
18364;SDS011;9309;52.126;11.616;2022-09-03T01:29:58;1.70;;;1.53;;
18364;SDS011;9309;52.126;11.616;2022-09-03T01:32:30;1.43;;;1.43;;
18364;SDS011;9309;52.126;11.616;2022-09-03T01:35:08;2.83;;;1.60;;
18364;SDS011;9309;52.126;11.616;2022-09-03T01:37:43;1.50;;;1.40;;
18364;SDS011;9309;52.126;11.616;2022-09-03T01:40:23;1.47;;;1.40;;
18364;SDS011;9309;52.126;11.616;2022-09-03T01:42:58;1.53;;;1.50;;
18364;SDS011;9309;52.126;11.616;2022-09-03T01:45:41;1.43;;;1.40;;
18364;SDS011;9309;52.126;11.616;2022-09-03T01:48:29;1.80;;;1.70;;
18364;SDS011;9309;52.126;11.616;2022-09-03T01:51:02;1.93;;;1.57;;
18364;SDS011;9309;52.126;11.616;2022-09-03T01:53:39;1.90;;;1.60;;
18364;SDS011;9309;52.126;11.616;2022-09-03T01:56:24;1.60;;;1.50;;
18364;SDS011;9309;52.126;11.616;2022-09-03T01:59:01;2.47;;;1.63;;
18364;SDS011;9309;52.126;11.616;2022-09-03T02:01:36;3.33;;;1.50;;
18364;SDS011;9309;52.126;11.616;2022-09-03T02:04:16;1.33;;;1.33;;
18364;SDS011;9309;52.126;11.616;2022-09-03T02:06:44;1.30;;;1.30;;
18364;SDS011;9309;52.126;11.616;2022-09-03T02:09:13;1.73;;;1.63;;
18364;SDS011;9309;52.126;11.616;2022-09-03T02:11:39;1.60;;;1.60;;
18364;SDS011;9309;52.126;11.616;2022-09-03T02:14:07;1.50;;;1.40;;
18364;SDS011;9309;52.126;11.616;2022-09-03T02:16:35;1.60;;;1.50;;
18364;SDS011;9309;52.126;11.616;2022-09-03T02:19:03;1.87;;;1.70;;
18364;SDS011;9309;52.126;11.616;2022-09-03T02:21:35;1.43;;;1.43;;
18364;SDS011;9309;52.126;11.616;2022-09-03T02:24:04;1.60;;;1.50;;
18364;SDS011;9309;52.126;11.616;2022-09-03T02:26:33;1.40;;;1.40;;
18364;SDS011;9309;52.126;11.616;2022-09-03T02:29:01;1.73;;;1.57;;
18364;SDS011;9309;52.126;11.616;2022-09-03T02:31:28;1.70;;;1.60;;
18364;SDS011;9309;52.126;11.616;2022-09-03T02:33:56;1.70;;;1.60;;
18364;SDS011;9309;52.126;11.616;2022-09-03T02:36:24;1.90;;;1.80;;
18364;SDS011;9309;52.126;11.616;2022-09-03T02:38:54;1.70;;;1.70;;
18364;SDS011;9309;52.126;11.616;2022-09-03T02:41:21;1.73;;;1.63;;
18364;SDS011;9309;52.126;11.616;2022-09-03T02:43:52;1.80;;;1.70;;
18364;SDS011;9309;52.126;11.616;2022-09-03T02:46:24;2.93;;;1.67;;
18364;SDS011;9309;52.126;11.616;2022-09-03T02:48:59;4.37;;;1.50;;
18364;SDS011;9309;52.126;11.616;2022-09-03T02:51:25;4.03;;;1.87;;
18364;SDS011;9309;52.126;11.616;2022-09-03T02:53:52;2.00;;;1.83;;
18364;SDS011;9309;52.126;11.616;2022-09-03T02:56:18;1.93;;;1.57;;
18364;SDS011;9309;52.126;11.616;2022-09-03T02:58:48;2.20;;;1.67;;
18364;SDS011;9309;52.126;11.616;2022-09-03T03:01:15;1.80;;;1.70;;
18364;SDS011;9309;52.126;11.616;2022-09-03T03:03:41;3.07;;;1.63;;
18364;SDS011;9309;52.126;11.616;2022-09-03T03:06:09;1.50;;;1.50;;
18364;SDS011;9309;52.126;11.616;2022-09-03T03:08:38;1.90;;;1.80;;
18364;SDS011;9309;52.126;11.616;2022-09-03T03:11:05;1.60;;;1.60;;
18364;SDS011;9309;52.126;11.616;2022-09-03T03:13:32;1.90;;;1.80;;
18364;SDS011;9309;52.126;11.616;2022-09-03T03:16:00;4.13;;;1.90;;
18364;SDS011;9309;52.126;11.616;2022-09-03T03:18:28;3.43;;;1.80;;
18364;SDS011;9309;52.126;11.616;2022-09-03T03:20:54;1.80;;;1.70;;
18364;SDS011;9309;52.126;11.616;2022-09-03T03:23:22;1.63;;;1.53;;
18364;SDS011;9309;52.126;11.616;2022-09-03T03:25:49;1.93;;;1.60;;
18364;SDS011;9309;52.126;11.616;2022-09-03T03:28:16;2.20;;;1.70;;
18364;SDS011;9309;52.126;11.616;2022-09-03T03:30:44;6.40;;;1.50;;
18364;SDS011;9309;52.126;11.616;2022-09-03T03:33:12;2.57;;;1.60;;
18364;SDS011;9309;52.126;11.616;2022-09-03T03:35:39;2.70;;;1.90;;
18364;SDS011;9309;52.126;11.616;2022-09-03T03:38:06;4.60;;;2.00;;
18364;SDS011;9309;52.126;11.616;2022-09-03T03:40:34;1.77;;;1.77;;
18364;SDS011;9309;52.126;11.616;2022-09-03T03:43:02;2.43;;;1.70;;
18364;SDS011;9309;52.126;11.616;2022-09-03T03:45:29;2.00;;;1.80;;
18364;SDS011;9309;52.126;11.616;2022-09-03T03:47:56;2.77;;;2.00;;
18364;SDS011;9309;52.126;11.616;2022-09-03T03:50:23;5.73;;;2.10;;
18364;SDS011;9309;52.126;11.616;2022-09-03T03:52:49;1.80;;;1.70;;
18364;SDS011;9309;52.126;11.616;2022-09-03T03:55:16;2.00;;;1.90;;
18364;SDS011;9309;52.126;11.616;2022-09-03T03:57:44;1.90;;;1.80;;
18364;SDS011;9309;52.126;11.616;2022-09-03T04:00:11;2.93;;;2.00;;
18364;SDS011;9309;52.126;11.616;2022-09-03T04:02:42;1.60;;;1.60;;
18364;SDS011;9309;52.126;11.616;2022-09-03T04:05:09;2.40;;;2.00;;
18364;SDS011;9309;52.126;11.616;2022-09-03T04:07:35;2.93;;;2.13;;
18364;SDS011;9309;52.126;11.616;2022-09-03T04:10:02;2.53;;;2.13;;
18364;SDS011;9309;52.126;11.616;2022-09-03T04:12:29;2.10;;;2.00;;
18364;SDS011;9309;52.126;11.616;2022-09-03T04:14:58;5.67;;;2.67;;
18364;SDS011;9309;52.126;11.616;2022-09-03T04:17:25;2.20;;;2.00;;
18364;SDS011;9309;52.126;11.616;2022-09-03T04:19:53;3.03;;;1.90;;
18364;SDS011;9309;52.126;11.616;2022-09-03T04:22:19;1.83;;;1.80;;
18364;SDS011;9309;52.126;11.616;2022-09-03T04:24:46;1.80;;;1.70;;
18364;SDS011;9309;52.126;11.616;2022-09-03T04:27:13;2.10;;;2.00;;
18364;SDS011;9309;52.126;11.616;2022-09-03T04:29:39;1.90;;;1.80;;
18364;SDS011;9309;52.126;11.616;2022-09-03T04:32:07;2.00;;;1.90;;
18364;SDS011;9309;52.126;11.616;2022-09-03T04:34:51;1.90;;;1.80;;
18364;SDS011;9309;52.126;11.616;2022-09-03T04:37:18;5.67;;;2.00;;
18364;SDS011;9309;52.126;11.616;2022-09-03T04:39:44;1.70;;;1.70;;
18364;SDS011;9309;52.126;11.616;2022-09-03T04:42:11;2.07;;;2.07;;
18364;SDS011;9309;52.126;11.616;2022-09-03T04:44:38;2.30;;;1.97;;
18364;SDS011;9309;52.126;11.616;2022-09-03T04:47:05;2.07;;;1.97;;
18364;SDS011;9309;52.126;11.616;2022-09-03T04:49:33;4.83;;;2.33;;
18364;SDS011;9309;52.126;11.616;2022-09-03T04:52:00;2.90;;;2.17;;
18364;SDS011;9309;52.126;11.616;2022-09-03T04:54:27;2.23;;;2.20;;
18364;SDS011;9309;52.126;11.616;2022-09-03T04:56:53;3.53;;;2.23;;
18364;SDS011;9309;52.126;11.616;2022-09-03T04:59:20;2.43;;;2.30;;
18364;SDS011;9309;52.126;11.616;2022-09-03T05:01:47;3.53;;;2.10;;
18364;SDS011;9309;52.126;11.616;2022-09-03T05:04:13;6.30;;;2.40;;
18364;SDS011;9309;52.126;11.616;2022-09-03T05:06:41;4.13;;;2.20;;
18364;SDS011;9309;52.126;11.616;2022-09-03T05:09:09;2.20;;;2.00;;
18364;SDS011;9309;52.126;11.616;2022-09-03T05:11:36;2.50;;;1.90;;
18364;SDS011;9309;52.126;11.616;2022-09-03T05:14:02;2.93;;;2.00;;
18364;SDS011;9309;52.126;11.616;2022-09-03T05:16:31;2.60;;;2.40;;
18364;SDS011;9309;52.126;11.616;2022-09-03T05:18:58;5.67;;;2.27;;
18364;SDS011;9309;52.126;11.616;2022-09-03T05:21:25;6.53;;;2.30;;
18364;SDS011;9309;52.126;11.616;2022-09-03T05:23:54;4.43;;;2.20;;
18364;SDS011;9309;52.126;11.616;2022-09-03T05:26:23;7.83;;;2.37;;
18364;SDS011;9309;52.126;11.616;2022-09-03T05:28:52;5.27;;;2.27;;
18364;SDS011;9309;52.126;11.616;2022-09-03T05:31:20;5.90;;;2.20;;
18364;SDS011;9309;52.126;11.616;2022-09-03T05:33:47;5.37;;;2.20;;
18364;SDS011;9309;52.126;11.616;2022-09-03T05:36:16;12.57;;;2.70;;
18364;SDS011;9309;52.126;11.616;2022-09-03T05:38:44;2.73;;;2.53;;
18364;SDS011;9309;52.126;11.616;2022-09-03T05:41:14;2.70;;;2.50;;
18364;SDS011;9309;52.126;11.616;2022-09-03T05:43:42;5.93;;;2.40;;
18364;SDS011;9309;52.126;11.616;2022-09-03T05:46:10;4.63;;;2.30;;
18364;SDS011;9309;52.126;11.616;2022-09-03T05:48:38;2.53;;;2.43;;
18364;SDS011;9309;52.126;11.616;2022-09-03T05:51:07;4.63;;;2.20;;
18364;SDS011;9309;52.126;11.616;2022-09-03T05:53:36;2.17;;;2.07;;
18364;SDS011;9309;52.126;11.616;2022-09-03T05:56:05;2.83;;;2.50;;
18364;SDS011;9309;52.126;11.616;2022-09-03T05:58:37;2.40;;;2.30;;
18364;SDS011;9309;52.126;11.616;2022-09-03T06:01:09;5.40;;;2.53;;
18364;SDS011;9309;52.126;11.616;2022-09-03T06:03:37;6.20;;;2.47;;
18364;SDS011;9309;52.126;11.616;2022-09-03T06:06:04;3.47;;;2.47;;
18364;SDS011;9309;52.126;11.616;2022-09-03T06:08:31;2.53;;;2.37;;
18364;SDS011;9309;52.126;11.616;2022-09-03T06:10:58;11.43;;;2.30;;
18364;SDS011;9309;52.126;11.616;2022-09-03T06:13:25;7.23;;;3.03;;
18364;SDS011;9309;52.126;11.616;2022-09-03T06:15:56;2.30;;;2.20;;
18364;SDS011;9309;52.126;11.616;2022-09-03T06:18:23;2.07;;;2.00;;
18364;SDS011;9309;52.126;11.616;2022-09-03T06:20:53;2.70;;;2.50;;
18364;SDS011;9309;52.126;11.616;2022-09-03T06:23:20;3.60;;;2.70;;
18364;SDS011;9309;52.126;11.616;2022-09-03T06:25:47;3.77;;;2.67;;
18364;SDS011;9309;52.126;11.616;2022-09-03T06:28:13;3.17;;;2.30;;
18364;SDS011;9309;52.126;11.616;2022-09-03T06:30:40;2.83;;;2.63;;
18364;SDS011;9309;52.126;11.616;2022-09-03T06:33:08;3.43;;;2.53;;
18364;SDS011;9309;52.126;11.616;2022-09-03T06:35:35;4.03;;;2.67;;
18364;SDS011;9309;52.126;11.616;2022-09-03T06:38:01;4.07;;;2.40;;
18364;SDS011;9309;52.126;11.616;2022-09-03T06:40:28;2.70;;;2.60;;
18364;SDS011;9309;52.126;11.616;2022-09-03T06:42:56;5.33;;;2.80;;
18364;SDS011;9309;52.126;11.616;2022-09-03T06:45:24;2.77;;;2.50;;
18364;SDS011;9309;52.126;11.616;2022-09-03T06:47:52;5.17;;;2.60;;
18364;SDS011;9309;52.126;11.616;2022-09-03T06:50:21;2.73;;;2.57;;
18364;SDS011;9309;52.126;11.616;2022-09-03T06:52:49;4.20;;;2.50;;
18364;SDS011;9309;52.126;11.616;2022-09-03T06:55:19;3.73;;;2.53;;
18364;SDS011;9309;52.126;11.616;2022-09-03T06:57:46;2.60;;;2.40;;
18364;SDS011;9309;52.126;11.616;2022-09-03T07:00:13;2.10;;;2.00;;
18364;SDS011;9309;52.126;11.616;2022-09-03T07:02:40;2.40;;;2.30;;
18364;SDS011;9309;52.126;11.616;2022-09-03T07:05:09;2.93;;;2.00;;
18364;SDS011;9309;52.126;11.616;2022-09-03T07:07:37;2.67;;;2.50;;
18364;SDS011;9309;52.126;11.616;2022-09-03T07:10:04;2.37;;;1.93;;
18364;SDS011;9309;52.126;11.616;2022-09-03T07:12:31;3.97;;;2.33;;
18364;SDS011;9309;52.126;11.616;2022-09-03T07:15:01;2.93;;;2.23;;
18364;SDS011;9309;52.126;11.616;2022-09-03T07:17:28;5.20;;;2.20;;
18364;SDS011;9309;52.126;11.616;2022-09-03T07:19:55;3.50;;;2.30;;
18364;SDS011;9309;52.126;11.616;2022-09-03T07:22:22;3.27;;;2.20;;
18364;SDS011;9309;52.126;11.616;2022-09-03T07:24:50;2.30;;;2.20;;
18364;SDS011;9309;52.126;11.616;2022-09-03T07:27:16;5.37;;;2.50;;
18364;SDS011;9309;52.126;11.616;2022-09-03T07:29:43;2.47;;;2.10;;
18364;SDS011;9309;52.126;11.616;2022-09-03T07:32:10;2.20;;;2.10;;
18364;SDS011;9309;52.126;11.616;2022-09-03T07:34:36;2.00;;;1.90;;
18364;SDS011;9309;52.126;11.616;2022-09-03T07:37:03;2.67;;;2.17;;
18364;SDS011;9309;52.126;11.616;2022-09-03T07:39:31;2.00;;;1.90;;
18364;SDS011;9309;52.126;11.616;2022-09-03T07:41:59;2.13;;;1.93;;
18364;SDS011;9309;52.126;11.616;2022-09-03T07:44:26;4.23;;;2.00;;
18364;SDS011;9309;52.126;11.616;2022-09-03T07:46:53;4.43;;;2.30;;
18364;SDS011;9309;52.126;11.616;2022-09-03T07:49:20;1.97;;;1.73;;
18364;SDS011;9309;52.126;11.616;2022-09-03T07:51:47;3.17;;;2.27;;
18364;SDS011;9309;52.126;11.616;2022-09-03T07:54:17;1.83;;;1.73;;
18364;SDS011;9309;52.126;11.616;2022-09-03T07:56:44;5.27;;;2.40;;
18364;SDS011;9309;52.126;11.616;2022-09-03T07:59:12;5.57;;;2.20;;
18364;SDS011;9309;52.126;11.616;2022-09-03T08:01:38;4.33;;;2.00;;
18364;SDS011;9309;52.126;11.616;2022-09-03T08:04:05;2.30;;;2.07;;
18364;SDS011;9309;52.126;11.616;2022-09-03T08:06:32;3.83;;;2.00;;
18364;SDS011;9309;52.126;11.616;2022-09-03T08:09:00;4.70;;;2.07;;
18364;SDS011;9309;52.126;11.616;2022-09-03T08:11:28;2.90;;;2.20;;
18364;SDS011;9309;52.126;11.616;2022-09-03T08:13:56;2.37;;;2.20;;
18364;SDS011;9309;52.126;11.616;2022-09-03T08:16:27;3.07;;;2.00;;
18364;SDS011;9309;52.126;11.616;2022-09-03T08:18:55;2.07;;;1.87;;
18364;SDS011;9309;52.126;11.616;2022-09-03T08:21:23;4.10;;;2.00;;
18364;SDS011;9309;52.126;11.616;2022-09-03T08:23:51;1.77;;;1.67;;
18364;SDS011;9309;52.126;11.616;2022-09-03T08:26:19;3.03;;;1.73;;
18364;SDS011;9309;52.126;11.616;2022-09-03T08:28:47;1.83;;;1.73;;
18364;SDS011;9309;52.126;11.616;2022-09-03T08:31:14;2.10;;;2.00;;
18364;SDS011;9309;52.126;11.616;2022-09-03T08:33:44;8.20;;;2.00;;
18364;SDS011;9309;52.126;11.616;2022-09-03T08:36:13;1.90;;;1.80;;
18364;SDS011;9309;52.126;11.616;2022-09-03T08:38:41;6.13;;;2.23;;
18364;SDS011;9309;52.126;11.616;2022-09-03T08:41:10;3.13;;;1.80;;
18364;SDS011;9309;52.126;11.616;2022-09-03T08:43:49;4.00;;;1.87;;
18364;SDS011;9309;52.126;11.616;2022-09-03T08:46:31;5.17;;;2.37;;
18364;SDS011;9309;52.126;11.616;2022-09-03T08:49:05;2.13;;;1.90;;
18364;SDS011;9309;52.126;11.616;2022-09-03T08:51:34;3.07;;;1.87;;
18364;SDS011;9309;52.126;11.616;2022-09-03T08:54:07;3.43;;;1.70;;
18364;SDS011;9309;52.126;11.616;2022-09-03T08:56:36;2.90;;;1.90;;
18364;SDS011;9309;52.126;11.616;2022-09-03T08:59:05;2.23;;;1.50;;
18364;SDS011;9309;52.126;11.616;2022-09-03T09:01:34;4.67;;;1.87;;
18364;SDS011;9309;52.126;11.616;2022-09-03T09:04:12;1.50;;;1.40;;
18364;SDS011;9309;52.126;11.616;2022-09-03T09:06:49;2.87;;;1.63;;
18364;SDS011;9309;52.126;11.616;2022-09-03T09:09:24;4.57;;;1.63;;
18364;SDS011;9309;52.126;11.616;2022-09-03T09:12:00;1.30;;;1.30;;
18364;SDS011;9309;52.126;11.616;2022-09-03T09:14:37;4.43;;;1.60;;
18364;SDS011;9309;52.126;11.616;2022-09-03T09:17:30;3.63;;;1.73;;
18364;SDS011;9309;52.126;11.616;2022-09-03T09:20:12;1.60;;;1.60;;
18364;SDS011;9309;52.126;11.616;2022-09-03T09:22:45;2.00;;;1.70;;
18364;SDS011;9309;52.126;11.616;2022-09-03T09:25:16;4.83;;;1.40;;
18364;SDS011;9309;52.126;11.616;2022-09-03T09:27:47;1.73;;;1.50;;
18364;SDS011;9309;52.126;11.616;2022-09-03T09:30:20;1.40;;;1.40;;
18364;SDS011;9309;52.126;11.616;2022-09-03T09:32:46;2.47;;;1.60;;
18364;SDS011;9309;52.126;11.616;2022-09-03T09:35:15;4.03;;;1.55;;
18364;SDS011;9309;52.126;11.616;2022-09-03T09:37:50;2.58;;;1.50;;
18364;SDS011;9309;52.126;11.616;2022-09-03T09:40:25;3.95;;;1.65;;
18364;SDS011;9309;52.126;11.616;2022-09-03T09:43:07;5.95;;;1.67;;
18364;SDS011;9309;52.126;11.616;2022-09-03T09:45:36;2.30;;;1.58;;
18364;SDS011;9309;52.126;11.616;2022-09-03T09:48:07;1.88;;;1.63;;
18364;SDS011;9309;52.126;11.616;2022-09-03T09:50:39;2.63;;;1.58;;
18364;SDS011;9309;52.126;11.616;2022-09-03T09:53:06;12.18;;;3.38;;
18364;SDS011;9309;52.126;11.616;2022-09-03T09:55:51;3.40;;;1.60;;
18364;SDS011;9309;52.126;11.616;2022-09-03T09:58:23;3.47;;;1.45;;
18364;SDS011;9309;52.126;11.616;2022-09-03T10:00:56;5.53;;;1.90;;
18364;SDS011;9309;52.126;11.616;2022-09-03T10:03:24;5.90;;;2.10;;
18364;SDS011;9309;52.126;11.616;2022-09-03T10:06:01;3.50;;;1.90;;
18364;SDS011;9309;52.126;11.616;2022-09-03T10:08:51;9.13;;;1.90;;
18364;SDS011;9309;52.126;11.616;2022-09-03T10:11:18;1.52;;;1.48;;
18364;SDS011;9309;52.126;11.616;2022-09-03T10:13:49;5.18;;;1.70;;
18364;SDS011;9309;52.126;11.616;2022-09-03T10:16:19;2.88;;;1.80;;
18364;SDS011;9309;52.126;11.616;2022-09-03T10:18:52;2.92;;;1.73;;
18364;SDS011;9309;52.126;11.616;2022-09-03T10:21:29;1.52;;;1.50;;
18364;SDS011;9309;52.126;11.616;2022-09-03T10:24:02;1.40;;;1.40;;
18364;SDS011;9309;52.126;11.616;2022-09-03T10:26:50;1.83;;;1.73;;
18364;SDS011;9309;52.126;11.616;2022-09-03T10:29:18;2.15;;;1.80;;
18364;SDS011;9309;52.126;11.616;2022-09-03T10:31:54;2.53;;;1.60;;
18364;SDS011;9309;52.126;11.616;2022-09-03T10:34:31;1.50;;;1.45;;
18364;SDS011;9309;52.126;11.616;2022-09-03T10:37:08;3.85;;;1.65;;
18364;SDS011;9309;52.126;11.616;2022-09-03T10:39:51;1.75;;;1.75;;
18364;SDS011;9309;52.126;11.616;2022-09-03T10:42:31;1.90;;;1.75;;
18364;SDS011;9309;52.126;11.616;2022-09-03T10:45:06;3.50;;;1.92;;
18364;SDS011;9309;52.126;11.616;2022-09-03T10:47:47;1.75;;;1.65;;
18364;SDS011;9309;52.126;11.616;2022-09-03T10:50:28;4.20;;;1.65;;
18364;SDS011;9309;52.126;11.616;2022-09-03T10:53:06;2.00;;;1.77;;
18364;SDS011;9309;52.126;11.616;2022-09-03T10:55:40;1.83;;;1.73;;
18364;SDS011;9309;52.126;11.616;2022-09-03T10:58:24;2.65;;;1.70;;
18364;SDS011;9309;52.126;11.616;2022-09-03T11:41:11;5.57;;;1.52;;
18364;SDS011;9309;52.126;11.616;2022-09-03T11:43:40;5.15;;;1.42;;
18364;SDS011;9309;52.126;11.616;2022-09-03T11:46:08;1.65;;;1.55;;
18364;SDS011;9309;52.126;11.616;2022-09-03T11:48:41;1.85;;;1.48;;
18364;SDS011;9309;52.126;11.616;2022-09-03T11:51:16;1.45;;;1.40;;
18364;SDS011;9309;52.126;11.616;2022-09-03T11:53:52;6.63;;;2.00;;
18364;SDS011;9309;52.126;11.616;2022-09-03T11:56:22;1.52;;;1.42;;
18364;SDS011;9309;52.126;11.616;2022-09-03T11:58:59;2.92;;;1.50;;
18364;SDS011;9309;52.126;11.616;2022-09-03T12:01:29;4.18;;;1.80;;
18364;SDS011;9309;52.126;11.616;2022-09-03T12:03:57;3.45;;;1.70;;
18364;SDS011;9309;52.126;11.616;2022-09-03T12:06:31;3.38;;;1.60;;
18364;SDS011;9309;52.126;11.616;2022-09-03T12:09:16;7.63;;;1.73;;
18364;SDS011;9309;52.126;11.616;2022-09-03T12:11:59;2.50;;;1.50;;
18364;SDS011;9309;52.126;11.616;2022-09-03T12:14:36;2.63;;;1.60;;
18364;SDS011;9309;52.126;11.616;2022-09-03T12:17:17;3.22;;;1.67;;
18364;SDS011;9309;52.126;11.616;2022-09-03T12:19:52;1.73;;;1.60;;
18364;SDS011;9309;52.126;11.616;2022-09-03T12:22:20;2.00;;;1.55;;
18364;SDS011;9309;52.126;11.616;2022-09-03T12:24:48;1.42;;;1.42;;
18364;SDS011;9309;52.126;11.616;2022-09-03T12:27:18;1.90;;;1.77;;
18364;SDS011;9309;52.126;11.616;2022-09-03T12:29:52;5.70;;;1.95;;
18364;SDS011;9309;52.126;11.616;2022-09-03T12:32:24;1.80;;;1.70;;
18364;SDS011;9309;52.126;11.616;2022-09-03T12:34:52;3.17;;;1.60;;
18364;SDS011;9309;52.126;11.616;2022-09-03T12:37:20;3.97;;;1.52;;
18364;SDS011;9309;52.126;11.616;2022-09-03T12:39:49;1.50;;;1.40;;
18364;SDS011;9309;52.126;11.616;2022-09-03T12:42:19;1.80;;;1.70;;
18364;SDS011;9309;52.126;11.616;2022-09-03T12:44:50;2.92;;;1.95;;
18364;SDS011;9309;52.126;11.616;2022-09-03T12:47:17;1.90;;;1.63;;
18364;SDS011;9309;52.126;11.616;2022-09-03T12:49:46;3.50;;;1.55;;
18364;SDS011;9309;52.126;11.616;2022-09-03T12:52:15;2.15;;;1.50;;
18364;SDS011;9309;52.126;11.616;2022-09-03T12:54:46;4.05;;;1.85;;
18364;SDS011;9309;52.126;11.616;2022-09-03T12:57:19;3.92;;;1.90;;
18364;SDS011;9309;52.126;11.616;2022-09-03T12:59:49;2.03;;;1.90;;
18364;SDS011;9309;52.126;11.616;2022-09-03T13:02:21;4.03;;;2.05;;
18364;SDS011;9309;52.126;11.616;2022-09-03T13:04:52;1.45;;;1.45;;
18364;SDS011;9309;52.126;11.616;2022-09-03T13:07:22;5.07;;;1.70;;
18364;SDS011;9309;52.126;11.616;2022-09-03T13:09:54;3.97;;;2.10;;
18364;SDS011;9309;52.126;11.616;2022-09-03T13:12:30;4.43;;;1.70;;
18364;SDS011;9309;52.126;11.616;2022-09-03T13:15:04;4.35;;;2.00;;
18364;SDS011;9309;52.126;11.616;2022-09-03T13:17:44;4.78;;;1.80;;
18364;SDS011;9309;52.126;11.616;2022-09-03T13:20:23;3.17;;;1.60;;
18364;SDS011;9309;52.126;11.616;2022-09-03T13:23:01;2.55;;;1.60;;
18364;SDS011;9309;52.126;11.616;2022-09-03T13:25:36;3.28;;;1.80;;
18364;SDS011;9309;52.126;11.616;2022-09-03T13:28:14;3.92;;;1.90;;
18364;SDS011;9309;52.126;11.616;2022-09-03T13:30:52;2.92;;;1.85;;
18364;SDS011;9309;52.126;11.616;2022-09-03T13:33:22;2.92;;;1.65;;
18364;SDS011;9309;52.126;11.616;2022-09-03T13:35:53;2.40;;;1.60;;
18364;SDS011;9309;52.126;11.616;2022-09-03T13:38:27;2.50;;;1.92;;
18364;SDS011;9309;52.126;11.616;2022-09-03T13:40:59;2.63;;;1.60;;
18364;SDS011;9309;52.126;11.616;2022-09-03T13:43:32;3.30;;;1.60;;
18364;SDS011;9309;52.126;11.616;2022-09-03T13:46:06;1.50;;;1.50;;
18364;SDS011;9309;52.126;11.616;2022-09-03T13:48:38;4.07;;;1.60;;
18364;SDS011;9309;52.126;11.616;2022-09-03T13:51:24;1.77;;;1.48;;
18364;SDS011;9309;52.126;11.616;2022-09-03T13:54:00;1.80;;;1.70;;
18364;SDS011;9309;52.126;11.616;2022-09-03T13:56:41;3.58;;;1.50;;
18364;SDS011;9309;52.126;11.616;2022-09-03T13:59:17;2.15;;;1.65;;
18364;SDS011;9309;52.126;11.616;2022-09-03T14:01:54;3.50;;;1.55;;
18364;SDS011;9309;52.126;11.616;2022-09-03T14:04:33;6.43;;;1.50;;
18364;SDS011;9309;52.126;11.616;2022-09-03T14:07:12;3.08;;;1.58;;
18364;SDS011;9309;52.126;11.616;2022-09-03T14:09:50;2.55;;;1.88;;
18364;SDS011;9309;52.126;11.616;2022-09-03T14:12:28;3.33;;;1.70;;
18364;SDS011;9309;52.126;11.616;2022-09-03T14:15:04;2.38;;;1.73;;
18364;SDS011;9309;52.126;11.616;2022-09-03T14:17:40;2.58;;;1.90;;
18364;SDS011;9309;52.126;11.616;2022-09-03T14:20:12;3.03;;;1.70;;
18364;SDS011;9309;52.126;11.616;2022-09-03T14:22:48;1.50;;;1.40;;
18364;SDS011;9309;52.126;11.616;2022-09-03T14:25:18;4.15;;;2.10;;
18364;SDS011;9309;52.126;11.616;2022-09-03T14:27:48;5.32;;;1.95;;
18364;SDS011;9309;52.126;11.616;2022-09-03T14:30:18;3.00;;;1.80;;
18364;SDS011;9309;52.126;11.616;2022-09-03T14:32:54;1.85;;;1.75;;
18364;SDS011;9309;52.126;11.616;2022-09-03T14:35:32;3.88;;;1.80;;
18364;SDS011;9309;52.126;11.616;2022-09-03T14:38:17;2.28;;;2.05;;
18364;SDS011;9309;52.126;11.616;2022-09-03T14:40:57;4.32;;;2.15;;
18364;SDS011;9309;52.126;11.616;2022-09-03T14:43:45;4.72;;;2.28;;
18364;SDS011;9309;52.126;11.616;2022-09-03T14:46:42;3.85;;;2.10;;
18364;SDS011;9309;52.126;11.616;2022-09-03T14:49:22;2.10;;;1.92;;
18364;SDS011;9309;52.126;11.616;2022-09-03T14:52:06;4.65;;;2.00;;
18364;SDS011;9309;52.126;11.616;2022-09-03T14:57:47;2.38;;;2.10;;
18364;SDS011;9309;52.126;11.616;2022-09-03T15:00:27;5.38;;;2.10;;
18364;SDS011;9309;52.126;11.616;2022-09-03T15:03:10;6.88;;;1.92;;
18364;SDS011;9309;52.126;11.616;2022-09-03T15:06:01;4.82;;;2.38;;
18364;SDS011;9309;52.126;11.616;2022-09-03T15:08:38;4.68;;;2.17;;
18364;SDS011;9309;52.126;11.616;2022-09-03T15:11:16;7.32;;;2.35;;
18364;SDS011;9309;52.126;11.616;2022-09-03T15:13:47;4.07;;;2.28;;
18364;SDS011;9309;52.126;11.616;2022-09-03T15:16:19;3.20;;;2.38;;
18364;SDS011;9309;52.126;11.616;2022-09-03T15:19:02;2.83;;;2.10;;
18364;SDS011;9309;52.126;11.616;2022-09-03T15:21:40;6.05;;;2.38;;
18364;SDS011;9309;52.126;11.616;2022-09-03T15:24:18;2.03;;;1.90;;
18364;SDS011;9309;52.126;11.616;2022-09-03T15:27:04;5.70;;;2.10;;
18364;SDS011;9309;52.126;11.616;2022-09-03T15:29:44;3.33;;;2.30;;
18364;SDS011;9309;52.126;11.616;2022-09-03T15:32:18;7.65;;;2.20;;
18364;SDS011;9309;52.126;11.616;2022-09-03T15:35:05;5.40;;;2.72;;
18364;SDS011;9309;52.126;11.616;2022-09-03T15:37:35;5.20;;;2.20;;
18364;SDS011;9309;52.126;11.616;2022-09-03T15:40:15;4.97;;;2.30;;
18364;SDS011;9309;52.126;11.616;2022-09-03T15:42:51;5.60;;;2.25;;
18364;SDS011;9309;52.126;11.616;2022-09-03T15:45:27;3.67;;;2.30;;
18364;SDS011;9309;52.126;11.616;2022-09-03T15:48:00;6.07;;;2.50;;
18364;SDS011;9309;52.126;11.616;2022-09-03T15:50:36;3.47;;;2.20;;
18364;SDS011;9309;52.126;11.616;2022-09-03T15:53:15;2.42;;;2.22;;
18364;SDS011;9309;52.126;11.616;2022-09-03T15:55:59;2.70;;;2.30;;
18364;SDS011;9309;52.126;11.616;2022-09-03T15:58:32;5.78;;;2.30;;
18364;SDS011;9309;52.126;11.616;2022-09-03T16:01:02;7.20;;;2.15;;
18364;SDS011;9309;52.126;11.616;2022-09-03T16:03:36;6.97;;;2.38;;